Time;durP1;ratioP1;P1;durP2;ratioP2;P2;SDS_P1;SDS_P2;PMS_P1;PMS_P2;Temp;Humidity;BMP_temperature;BMP_pressure;BME280_temperature;BME280_humidity;BME280_pressure;Samples;Min_cycle;Max_cycle;Signal;HPM_P1;HPM_P2
2023/10/06 10:09:37;;;;;;;10.27;4.30;;;;;;;17.75;82.91;102326.69;6219474;23;20021;-81
2023/10/06 10:12:15;;;;;;;8.77;4.00;;;;;;;17.91;82.76;102325.63;6220854;23;20013;-84
2023/10/06 10:15:00;;;;;;;7.43;4.15;;;;;;;18.00;82.60;102320.94;6220689;23;20017;-85
2023/10/06 10:17:48;;;;;;;8.13;4.30;;;;;;;18.05;81.16;102311.50;6220023;23;20399;-84
2023/10/06 10:20:16;;;;;;;9.82;3.92;;;;;;;17.98;82.04;102325.31;6220278;23;20069;-89
2023/10/06 10:22:43;;;;;;;13.93;4.25;;;;;;;18.03;82.38;102313.16;6220240;23;20072;-88
2023/10/06 10:25:13;;;;;;;8.60;4.32;;;;;;;18.03;82.55;102338.16;6220276;23;20044;-83
2023/10/06 10:28:17;;;;;;;8.35;4.40;;;;;;;17.96;82.57;102333.84;6219868;23;20335;-85
2023/10/06 10:30:53;;;;;;;13.07;4.15;;;;;;;17.92;82.59;102329.81;6195691;23;20080;-88
2023/10/06 10:33:22;;;;;;;11.00;4.40;;;;;;;17.77;82.93;102326.25;6221823;23;20442;-82
2023/10/06 10:36:14;;;;;;;9.57;4.05;;;;;;;17.77;83.22;102345.84;6222861;23;20025;-88
2023/10/06 10:38:42;;;;;;;10.23;5.00;;;;;;;17.77;83.33;102335.06;6222141;23;20482;-85
2023/10/06 10:41:09;;;;;;;11.77;4.40;;;;;;;17.84;83.44;102344.78;6220521;23;20017;-85
2023/10/06 10:43:37;;;;;;;10.82;4.05;;;;;;;17.89;82.73;102326.06;6195535;23;20506;-84
2023/10/06 10:46:06;;;;;;;12.27;3.88;;;;;;;17.84;82.91;102315.91;6200681;23;20382;-86
2023/10/06 10:48:47;;;;;;;7.43;4.03;;;;;;;17.93;82.82;102318.59;6225821;23;20013;-80
2023/10/06 10:51:15;;;;;;;6.35;4.15;;;;;;;17.94;83.04;102322.03;6198161;23;20459;-88
2023/10/06 10:53:43;;;;;;;6.78;4.00;;;;;;;18.10;83.25;102315.53;6195647;23;20099;-91
2023/10/06 10:56:13;;;;;;;10.00;3.90;;;;;;;18.28;82.97;102308.16;6194309;23;20448;-87
2023/10/06 10:58:49;;;;;;;11.32;4.15;;;;;;;18.46;82.29;102301.16;6194011;23;20044;-87
2023/10/06 11:01:38;;;;;;;7.55;3.60;;;;;;;18.55;82.23;102304.56;6194335;23;20072;-87
2023/10/06 11:04:17;;;;;;;7.30;3.83;;;;;;;18.65;82.38;102316.09;6221039;23;20013;-87
2023/10/06 11:06:48;;;;;;;10.40;3.60;;;;;;;18.70;80.55;102304.69;6221202;23;20021;-86
2023/10/06 11:09:25;;;;;;;7.85;3.58;;;;;;;18.74;80.38;102307.22;6168399;23;20028;-87
2023/10/06 11:11:59;;;;;;;6.30;3.80;;;;;;;18.78;80.36;102311.25;6221010;23;20017;-86
2023/10/06 11:14:49;;;;;;;9.98;3.97;;;;;;;18.76;80.07;102297.47;6193797;23;20526;-84
2023/10/06 11:17:24;;;;;;;8.93;3.53;;;;;;;18.73;80.67;102289.53;6220670;23;20021;-86
2023/10/06 11:20:15;;;;;;;6.38;3.50;;;;;;;18.71;80.32;102295.41;6194829;23;20013;-86
2023/10/06 11:22:59;;;;;;;6.32;3.40;;;;;;;18.74;79.88;102296.44;6220448;23;20021;-86
2023/10/06 11:25:28;;;;;;;8.65;3.83;;;;;;;18.69;79.11;102291.66;6168001;23;20021;-86
2023/10/06 11:27:55;;;;;;;5.45;3.50;;;;;;;18.64;79.28;102295.72;6221171;23;20104;-86
2023/10/06 11:30:23;;;;;;;8.73;3.60;;;;;;;18.75;79.69;102297.91;6192980;23;20088;-87
2023/10/06 11:32:51;;;;;;;14.73;3.55;;;;;;;18.86;79.29;102298.88;6220778;23;20095;-85
2023/10/06 11:35:17;;;;;;;9.38;3.92;;;;;;;18.86;78.31;102303.53;6220486;23;20439;-84
2023/10/06 11:37:44;;;;;;;6.70;3.30;;;;;;;18.73;78.38;102292.25;6193474;23;20017;-85
2023/10/06 11:40:12;;;;;;;7.75;4.05;;;;;;;18.68;78.43;102296.31;6219863;23;20045;-86
2023/10/06 11:42:41;;;;;;;11.90;3.92;;;;;;;18.61;78.60;102300.09;6193931;23;20013;-85
2023/10/06 11:45:25;;;;;;;8.35;3.53;;;;;;;18.62;79.16;102292.75;6192998;23;20084;-86
2023/10/06 11:47:52;;;;;;;7.65;3.83;;;;;;;18.66;78.48;102282.53;6194214;23;20514;-83
2023/10/06 11:50:22;;;;;;;7.78;3.35;;;;;;;18.70;78.97;102291.19;6219669;23;20551;-85
2023/10/06 11:52:49;;;;;;;6.97;3.75;;;;;;;18.74;78.42;102289.09;6220741;23;20024;-86
2023/10/06 11:55:24;;;;;;;11.02;3.60;;;;;;;18.76;78.66;102294.03;6193044;23;20017;-85
2023/10/06 11:57:51;;;;;;;10.00;3.40;;;;;;;18.78;77.95;102292.34;6220676;23;20021;-88
2023/10/06 12:00:33;;;;;;;9.73;3.42;;;;;;;18.83;78.51;102293.66;6193880;23;20383;-86
2023/10/06 12:03:00;;;;;;;10.23;4.05;;;;;;;18.95;78.54;102279.94;6193277;23;20493;-86
2023/10/06 12:05:28;;;;;;;10.95;3.90;;;;;;;19.02;78.18;102288.91;6193120;23;20443;-87
2023/10/06 12:08:08;;;;;;;4.22;3.45;;;;;;;19.06;78.24;102273.28;6192977;23;20461;-86
2023/10/06 12:10:51;;;;;;;12.98;4.10;;;;;;;19.01;78.34;102271.22;6220326;23;21234;-83
2023/10/06 12:13:18;;;;;;;8.43;3.80;;;;;;;18.87;77.47;102269.94;6193924;23;20052;-83
2023/10/06 12:15:46;;;;;;;7.50;3.88;;;;;;;18.76;78.25;102264.34;6193589;23;20087;-86
2023/10/06 12:18:14;;;;;;;9.32;4.40;;;;;;;18.72;78.86;102272.59;6220057;23;20021;-85
2023/10/06 12:20:40;;;;;;;7.60;3.22;;;;;;;18.76;79.21;102270.50;6193129;23;20459;-86
2023/10/06 12:23:07;;;;;;;7.32;3.80;;;;;;;18.71;78.44;102268.41;6192523;23;20443;-86
2023/10/06 12:25:36;;;;;;;10.57;3.90;;;;;;;18.67;78.54;102264.41;6168675;23;20473;-85
2023/10/06 12:28:03;;;;;;;7.70;4.07;;;;;;;18.68;78.20;102268.59;6194218;23;20017;-84
2023/10/06 12:30:30;;;;;;;5.90;3.65;;;;;;;18.70;78.76;102250.75;6195239;23;20068;-86
2023/10/06 12:32:58;;;;;;;7.03;3.60;;;;;;;18.66;77.59;102263.66;6224034;23;20017;-89
2023/10/06 12:35:28;;;;;;;9.88;3.70;;;;;;;18.64;78.37;102257.97;6194076;23;20021;-87
2023/10/06 12:37:56;;;;;;;12.95;3.80;;;;;;;18.70;79.27;102253.44;6194904;23;20024;-89
2023/10/06 12:40:23;;;;;;;8.77;3.65;;;;;;;18.77;78.55;102247.69;6219678;23;20525;-87
2023/10/06 12:42:49;;;;;;;7.68;3.97;;;;;;;18.81;77.78;102245.56;6196924;23;20081;-89
2023/10/06 12:45:19;;;;;;;9.43;3.90;;;;;;;18.74;78.20;102237.84;6222561;23;20013;-83
2023/10/06 12:47:49;;;;;;;10.48;4.13;;;;;;;18.74;78.77;102242.47;6197038;23;20032;-88
2023/10/06 12:50:19;;;;;;;8.88;4.20;;;;;;;18.67;78.94;102240.13;6228122;23;20013;-88
2023/10/06 12:52:52;;;;;;;9.27;3.92;;;;;;;18.67;79.75;102238.19;6202516;23;20029;-88
2023/10/06 12:55:41;;;;;;;11.70;4.47;;;;;;;18.71;79.34;102236.06;6195312;23;20017;-88
2023/10/06 12:58:14;;;;;;;7.30;4.20;;;;;;;18.73;79.99;102236.34;6223052;23;20045;-86
2023/10/06 13:00:41;;;;;;;9.05;3.72;;;;;;;18.75;79.92;102233.94;6219346;23;20071;-90
2023/10/06 13:03:17;;;;;;;7.55;4.05;;;;;;;18.78;80.15;102235.72;6221181;23;20790;-90
2023/10/06 13:05:45;;;;;;;14.43;4.07;;;;;;;18.81;80.44;102242.84;6194707;23;20104;-90
2023/10/06 13:08:24;;;;;;;14.30;4.15;;;;;;;18.87;81.17;102235.63;6221527;23;20018;-89
2023/10/06 13:10:53;;;;;;;8.90;4.00;;;;;;;18.95;80.76;102230.63;6220930;23;20104;-89
2023/10/06 13:13:20;;;;;;;9.57;4.10;;;;;;;19.05;80.63;102223.19;6220495;23;20014;-86
2023/10/06 13:15:47;;;;;;;5.10;3.58;;;;;;;19.12;79.24;102222.84;6193621;23;20056;-89
2023/10/06 13:18:17;;;;;;;12.68;4.05;;;;;;;19.15;78.98;102227.31;6193586;23;20021;-88
2023/10/06 13:21:07;;;;;;;12.38;3.80;;;;;;;19.20;79.08;102232.06;6173447;23;20016;-88
2023/10/06 13:23:36;;;;;;;8.85;3.97;;;;;;;19.20;78.06;102223.94;6193926;23;20076;-89
2023/10/06 13:26:03;;;;;;;9.70;3.63;;;;;;;19.15;77.61;102227.31;6193257;23;20519;-86
2023/10/06 13:28:30;;;;;;;8.90;4.35;;;;;;;19.15;78.51;102236.16;6194405;23;20041;-88
2023/10/06 13:30:57;;;;;;;7.57;3.55;;;;;;;19.18;79.16;102232.53;6194304;23;20022;-91
2023/10/06 13:33:25;;;;;;;10.50;3.67;;;;;;;19.21;77.65;102250.47;6221205;23;20080;-89
2023/10/06 13:35:52;;;;;;;7.40;3.92;;;;;;;19.12;77.15;102239.03;6219532;23;20821;-89
2023/10/06 13:38:19;;;;;;;6.57;3.35;;;;;;;19.06;77.61;102238.19;6194171;23;20041;-89
2023/10/06 13:40:46;;;;;;;6.82;3.70;;;;;;;18.99;77.68;102234.63;6194470;23;20010;-91
2023/10/06 13:43:13;;;;;;;11.27;4.00;;;;;;;19.00;77.52;102229.97;6195925;23;20024;-91
2023/10/06 13:45:45;;;;;;;9.23;3.60;;;;;;;19.07;76.65;102226.94;6221715;23;20038;-89
2023/10/06 13:48:14;;;;;;;8.45;3.60;;;;;;;19.16;75.75;102239.63;6221004;23;20455;-90
2023/10/06 13:50:41;;;;;;;15.93;3.65;;;;;;;19.15;75.31;102243.53;6194677;23;20021;-90
2023/10/06 13:53:08;;;;;;;10.10;4.00;;;;;;;19.22;74.98;102238.47;6221868;23;20020;-90
2023/10/06 13:55:35;;;;;;;6.28;3.45;;;;;;;19.28;74.68;102230.47;6195608;23;20021;-88
2023/10/06 13:58:04;;;;;;;9.35;3.65;;;;;;;19.37;74.53;102221.56;6220104;23;20910;-90
2023/10/06 14:00:32;;;;;;;7.63;3.45;;;;;;;19.40;74.62;102221.38;6221444;23;20006;-90
2023/10/06 14:03:00;;;;;;;9.93;4.07;;;;;;;19.39;74.09;102224.53;6222030;23;20028;-89
2023/10/06 14:05:33;;;;;;;5.00;3.38;;;;;;;19.39;74.57;102224.53;6195179;23;20443;-86
2023/10/06 14:08:03;;;;;;;10.05;3.25;;;;;;;19.39;74.39;102225.28;6196420;23;20028;-91
2023/10/06 14:10:31;;;;;;;7.43;3.15;;;;;;;19.39;73.28;102224.53;6221277;23;20387;-89
2023/10/06 14:13:21;;;;;;;9.88;3.40;;;;;;;19.32;73.50;102231.78;6193563;23;20021;-86
2023/10/06 14:15:54;;;;;;;4.55;3.33;;;;;;;19.23;74.00;102229.19;6193607;23;20027;-79
2023/10/06 14:18:25;;;;;;;4.78;3.17;;;;;;;19.26;74.88;102214.75;6192607;23;20017;-81
2023/10/06 14:20:57;;;;;;;6.22;3.30;;;;;;;19.31;74.36;102224.91;6220494;23;20451;-81
2023/10/06 14:23:29;;;;;;;13.77;3.83;;;;;;;19.32;74.99;102217.56;6219700;23;20510;-80
2023/10/06 14:25:59;;;;;;;11.70;4.00;;;;;;;19.38;75.27;102212.25;6220121;23;20017;-79
2023/10/06 14:28:27;;;;;;;8.40;3.80;;;;;;;19.43;75.70;102206.19;6219785;23;21123;-85
2023/10/06 14:31:05;;;;;;;8.05;4.10;;;;;;;19.42;75.54;102213.56;6194056;23;20093;-84
2023/10/06 14:33:45;;;;;;;7.38;3.70;;;;;;;19.42;74.91;102210.84;6219733;23;20017;-84
2023/10/06 14:46:50;;;;;;;7.95;4.10;;;;;;;19.30;75.44;102206.47;6194249;23;20017;-82
2023/10/06 14:49:25;;;;;;;9.02;3.88;;;;;;;19.29;75.02;102207.69;6199239;23;20033;-87
2023/10/06 14:51:56;;;;;;;8.10;3.90;;;;;;;19.31;75.05;102213.34;6224347;23;20068;-93
2023/10/06 14:54:31;;;;;;;11.45;4.60;;;;;;;19.30;75.43;102198.38;6230797;23;20415;-86
2023/10/06 14:56:59;;;;;;;6.03;3.75;;;;;;;19.32;74.65;102212.91;6224065;23;20023;-83
2023/10/06 14:59:31;;;;;;;7.45;4.22;;;;;;;19.30;74.82;102209.91;6195418;23;20375;-85
2023/10/06 15:02:06;;;;;;;6.88;3.45;;;;;;;19.28;74.33;102204.22;6221848;23;20458;-87
2023/10/06 15:04:34;;;;;;;8.50;5.10;;;;;;;19.29;74.76;102205.72;6221361;23;20021;-85
2023/10/06 15:07:01;;;;;;;6.30;3.92;;;;;;;19.29;74.12;102210.38;6194838;23;20025;-82
2023/10/06 15:09:30;;;;;;;12.23;4.22;;;;;;;19.24;74.09;102208.31;6221432;23;20027;-86
2023/10/06 15:11:59;;;;;;;10.05;4.82;;;;;;;19.22;74.48;102194.53;6220144;23;20363;-84
2023/10/06 15:14:26;;;;;;;8.35;4.35;;;;;;;19.16;74.53;102193.72;6219560;23;20017;-86
2023/10/06 15:16:53;;;;;;;8.10;4.70;;;;;;;19.15;75.43;102182.19;6219929;23;20027;-86
2023/10/06 15:19:24;;;;;;;10.50;4.18;;;;;;;19.12;74.63;102195.84;6193075;23;20423;-81
2023/10/06 15:21:52;;;;;;;12.50;4.85;;;;;;;19.08;74.67;102179.84;6221297;23;20107;-85
2023/10/06 15:24:19;;;;;;;8.80;4.90;;;;;;;19.03;75.44;102179.75;6192324;23;20017;-84
2023/10/06 15:26:47;;;;;;;14.45;5.03;;;;;;;18.98;74.81;102187.28;6220799;23;20012;-87
2023/10/06 15:29:19;;;;;;;12.77;4.75;;;;;;;18.96;73.93;102170.78;6193620;23;20091;-81
2023/10/06 15:31:50;;;;;;;13.43;4.75;;;;;;;18.90;74.52;102178.03;6193202;23;20017;-87
2023/10/06 15:34:17;;;;;;;23.40;5.20;;;;;;;18.85;74.80;102183.31;6220330;23;20009;-85
2023/10/06 15:36:45;;;;;;;8.82;4.57;;;;;;;18.80;74.92;102171.22;6194623;23;20068;-89
2023/10/06 15:39:18;;;;;;;13.18;4.97;;;;;;;18.81;75.63;102178.09;6195189;23;20028;-86
2023/10/06 15:41:49;;;;;;;10.02;4.50;;;;;;;18.78;75.30;102176.38;6194280;23;20091;-87
2023/10/06 15:44:18;;;;;;;9.55;5.70;;;;;;;18.76;75.98;102178.78;6223684;23;20013;-88
2023/10/06 15:46:45;;;;;;;9.15;5.15;;;;;;;18.76;76.68;102178.78;6196045;23;20024;-80
2023/10/06 15:49:13;;;;;;;8.73;5.07;;;;;;;18.70;76.33;102183.31;6219644;23;20079;-85
2023/10/06 15:51:46;;;;;;;12.05;5.70;;;;;;;18.63;76.43;102180.97;6220024;23;20037;-82
2023/10/06 15:54:15;;;;;;;11.50;4.82;;;;;;;18.62;76.98;102174.06;6192634;23;20017;-80
2023/10/06 15:56:42;;;;;;;11.32;6.07;;;;;;;18.62;78.05;102182.16;6192155;23;20025;-81
2023/10/06 15:59:15;;;;;;;8.48;5.90;;;;;;;18.55;77.57;102177.09;6192417;23;20025;-80
2023/10/06 16:01:44;;;;;;;7.93;5.63;;;;;;;18.51;78.02;102177.25;6218235;23;20439;-80
2023/10/06 16:04:13;;;;;;;8.32;5.55;;;;;;;18.49;77.71;102184.31;6192471;23;20072;-81
2023/10/06 16:06:42;;;;;;;14.35;5.95;;;;;;;18.48;78.54;102175.47;6192006;23;20024;-80
2023/10/06 16:09:09;;;;;;;10.18;5.90;;;;;;;18.44;78.85;102177.59;6219161;23;20017;-82
2023/10/06 16:11:40;;;;;;;9.70;5.63;;;;;;;18.38;78.75;102173.31;6192355;23;20021;-80
2023/10/06 16:14:07;;;;;;;9.02;6.00;;;;;;;18.31;78.97;102174.41;6218987;23;20475;-80
2023/10/06 16:16:36;;;;;;;10.93;6.18;;;;;;;18.30;79.04;102170.22;6167399;23;20056;-81
2023/10/06 16:19:04;;;;;;;7.45;5.78;;;;;;;18.26;79.02;102170.38;6220529;23;20021;-85
2023/10/06 16:21:34;;;;;;;11.13;6.22;;;;;;;18.22;79.88;102169.06;6192978;23;20088;-86
2023/10/06 16:24:04;;;;;;;14.07;5.82;;;;;;;18.20;79.52;102160.69;6219076;23;20047;-85
2023/10/06 16:26:32;;;;;;;10.73;6.20;;;;;;;18.18;80.11;102163.84;6218243;23;20017;-86
2023/10/06 16:28:59;;;;;;;10.73;5.18;;;;;;;18.14;80.02;102155.19;6166620;23;20474;-84
2023/10/06 16:31:26;;;;;;;7.57;5.72;;;;;;;18.14;80.03;102162.53;6191624;23;20013;-85
2023/10/06 16:33:56;;;;;;;9.80;5.70;;;;;;;18.09;80.76;102155.06;6167272;23;20024;-85
2023/10/06 16:36:24;;;;;;;7.38;5.32;;;;;;;18.06;80.49;102156.72;6191524;23;20056;-84
2023/10/06 16:38:51;;;;;;;11.23;7.43;;;;;;;18.05;80.53;102157.91;6192104;23;20095;-85
2023/10/06 16:41:21;;;;;;;13.07;6.60;;;;;;;18.03;80.89;102167.66;6218337;23;20013;-85
2023/10/06 16:43:53;;;;;;;8.27;5.55;;;;;;;17.99;80.55;102160.50;6192045;23;20016;-85
2023/10/06 16:46:20;;;;;;;7.80;5.53;;;;;;;17.99;81.27;102159.78;6219718;23;20017;-86
2023/10/06 16:48:47;;;;;;;9.20;5.25;;;;;;;17.97;81.40;102167.56;6222468;23;20017;-87
2023/10/06 16:51:14;;;;;;;11.93;5.32;;;;;;;17.94;81.14;102161.13;6224272;23;20023;-86
2023/10/06 16:53:40;;;;;;;10.13;5.18;;;;;;;17.93;81.33;102167.72;6222389;23;20043;-86
2023/10/06 16:56:08;;;;;;;9.90;5.22;;;;;;;17.93;82.14;102161.59;6222741;23;20017;-85
2023/10/06 16:58:35;;;;;;;10.60;5.07;;;;;;;17.89;82.57;102161.00;6195770;23;20017;-86
2023/10/06 17:01:07;;;;;;;15.32;5.72;;;;;;;17.84;82.43;102158.94;6219807;23;20013;-86
2023/10/06 17:03:34;;;;;;;15.02;6.10;;;;;;;17.80;83.44;102158.34;6167595;23;20059;-86
2023/10/06 17:06:03;;;;;;;12.93;6.00;;;;;;;17.75;83.17;102159.72;6219468;23;20024;-85
2023/10/06 17:08:30;;;;;;;16.27;8.98;;;;;;;17.69;83.99;102166.16;6192601;23;20347;-83
2023/10/06 17:11:10;;;;;;;15.13;11.20;;;;;;;17.66;84.18;102160.47;6223888;23;20005;-92
2023/10/06 17:13:37;;;;;;;15.40;7.40;;;;;;;17.61;85.07;102166.44;6202155;23;20053;-92
2023/10/06 17:16:05;;;;;;;13.95;8.05;;;;;;;17.56;85.70;102161.72;6225197;23;20048;-90
2023/10/06 17:18:33;;;;;;;19.70;12.07;;;;;;;17.55;86.01;102168.28;6224835;23;20076;-89
2023/10/06 17:20:59;;;;;;;16.95;9.35;;;;;;;17.51;87.05;102169.66;6194598;23;20354;-89
2023/10/06 17:23:28;;;;;;;18.73;11.77;;;;;;;17.46;87.33;102178.31;6219785;23;20024;-88
2023/10/06 17:25:55;;;;;;;10.95;8.00;;;;;;;17.42;87.83;102180.44;6169860;23;20021;-85
2023/10/06 17:28:23;;;;;;;9.07;7.07;;;;;;;17.38;87.90;102177.91;6222363;23;20011;-87
2023/10/06 17:30:49;;;;;;;12.57;7.93;;;;;;;17.35;88.34;102176.09;6195193;23;20021;-88
2023/10/06 17:33:17;;;;;;;12.80;9.05;;;;;;;17.31;89.30;102172.81;6220858;23;20069;-89
2023/10/06 17:35:46;;;;;;;11.77;7.30;;;;;;;17.28;89.62;102176.41;6194043;23;20013;-93
2023/10/06 17:38:13;;;;;;;11.23;7.82;;;;;;;17.24;89.49;102176.56;6193005;23;20025;-85
2023/10/06 17:40:39;;;;;;;16.80;9.15;;;;;;;17.18;90.49;102186.47;6219534;23;20483;-87
2023/10/06 17:43:07;;;;;;;10.80;7.80;;;;;;;17.14;90.76;102183.19;6192053;23;20032;-85
2023/10/06 17:45:37;;;;;;;14.35;8.45;;;;;;;17.11;91.28;102178.69;6194113;23;20510;-85
2023/10/06 17:48:05;;;;;;;12.68;8.05;;;;;;;17.07;90.92;102174.66;6193134;23;20022;-86
2023/10/06 17:50:33;;;;;;;17.35;7.60;;;;;;;17.04;91.61;102172.88;6217554;23;20108;-85
2023/10/06 17:52:59;;;;;;;11.20;7.68;;;;;;;17.00;92.17;102179.13;6194616;23;20058;-90
2023/10/06 17:55:31;;;;;;;13.32;7.03;;;;;;;16.97;92.30;102181.97;6193354;23;20532;-87
2023/10/06 17:57:58;;;;;;;14.07;7.85;;;;;;;16.94;93.13;102185.56;6193142;23;20025;-85
2023/10/06 18:00:27;;;;;;;13.60;7.30;;;;;;;16.90;93.59;102191.09;6192567;23;20403;-86
2023/10/06 18:02:54;;;;;;;14.55;9.38;;;;;;;16.88;93.72;102184.66;6219832;23;20075;-83
2023/10/06 18:05:20;;;;;;;13.98;9.82;;;;;;;16.85;94.30;102182.88;6219281;23;20089;-87
2023/10/06 18:07:50;;;;;;;12.95;7.47;;;;;;;16.83;94.60;102193.31;6219614;23;20017;-86
2023/10/06 18:10:18;;;;;;;12.32;7.85;;;;;;;16.82;94.25;102189.13;6218275;23;20080;-86
2023/10/06 18:12:44;;;;;;;15.60;7.22;;;;;;;16.79;94.28;102192.75;6193372;23;20036;-96
2023/10/06 18:15:11;;;;;;;18.95;7.05;;;;;;;16.76;95.16;102185.56;6168565;23;20021;-84
2023/10/06 18:17:41;;;;;;;17.42;7.40;;;;;;;16.72;95.13;102185.72;6191954;23;20025;-84
2023/10/06 18:20:09;;;;;;;11.15;5.82;;;;;;;16.69;96.00;102189.31;6192655;23;20017;-88
2023/10/06 18:22:36;;;;;;;18.38;5.97;;;;;;;16.67;95.87;102187.06;6167155;23;20021;-85
2023/10/06 18:25:05;;;;;;;12.00;5.20;;;;;;;16.65;95.69;102183.31;6192375;23;20020;-84
2023/10/06 18:27:32;;;;;;;16.27;5.30;;;;;;;16.63;96.16;102174.91;6192878;23;20428;-84
2023/10/06 18:29:59;;;;;;;9.48;4.60;;;;;;;16.60;96.04;102168.50;6194156;23;20017;-82
2023/10/06 18:32:26;;;;;;;9.40;4.30;;;;;;;16.60;95.66;102170.44;6193507;23;20731;-83
2023/10/06 18:34:53;;;;;;;9.55;4.35;;;;;;;16.58;94.88;102162.06;6191915;23;20117;-86
2023/10/06 18:37:19;;;;;;;10.05;4.47;;;;;;;16.55;95.11;102163.69;6217132;23;20471;-84
2023/10/06 18:39:46;;;;;;;11.88;4.20;;;;;;;16.52;94.12;102156.53;6217209;23;20392;-82
2023/10/06 18:42:13;;;;;;;10.43;3.83;;;;;;;16.52;93.14;102163.84;6218464;23;20021;-85
2023/10/06 18:44:39;;;;;;;23.05;10.73;;;;;;;16.48;92.47;102166.69;6218713;23;20017;-83
2023/10/06 18:47:06;;;;;;;11.38;4.18;;;;;;;16.48;91.21;102168.63;6219181;23;20021;-86
2023/10/06 18:49:33;;;;;;;13.48;3.85;;;;;;;16.43;90.79;102169.19;6218780;23;20016;-82
2023/10/06 18:52:00;;;;;;;11.43;3.83;;;;;;;16.41;89.58;102174.28;6219535;23;20044;-83
2023/10/06 18:54:27;;;;;;;13.57;3.67;;;;;;;16.41;89.40;102187.72;6193492;23;20889;-85
2023/10/06 18:56:55;;;;;;;8.90;4.80;;;;;;;16.38;89.08;102188.63;6225653;23;20021;-86
2023/10/06 18:59:22;;;;;;;10.95;3.90;;;;;;;16.35;89.31;102190.25;6200208;23;20017;-84
2023/10/06 19:01:48;;;;;;;8.82;3.08;;;;;;;16.34;88.52;102188.75;6226542;23;20019;-87
2023/10/06 19:04:15;;;;;;;7.97;3.28;;;;;;;16.33;88.40;102184.59;6197710;23;20044;-90
2023/10/06 19:06:42;;;;;;;6.13;3.20;;;;;;;16.30;87.82;102180.84;6196926;23;20762;-91
2023/10/06 19:09:14;;;;;;;6.90;3.13;;;;;;;16.27;87.99;102187.09;6196612;23;20020;-89
2023/10/06 19:11:41;;;;;;;7.47;3.80;;;;;;;16.27;87.26;102180.97;6191797;23;20017;-86
2023/10/06 19:14:08;;;;;;;6.78;3.38;;;;;;;16.23;87.53;102178.44;6218110;23;20023;-88
2023/10/06 19:16:35;;;;;;;11.07;3.10;;;;;;;16.22;87.82;102185.00;6191142;23;20433;-86
2023/10/06 19:19:02;;;;;;;9.65;3.17;;;;;;;16.18;87.97;102189.75;6192744;23;20406;-86
2023/10/06 19:21:28;;;;;;;13.80;3.58;;;;;;;16.16;87.17;102186.75;6219585;23;20047;-84
2023/10/06 19:23:57;;;;;;;11.15;5.88;;;;;;;16.14;87.62;102183.78;6220110;23;20013;-85
2023/10/06 19:26:24;;;;;;;6.53;3.10;;;;;;;16.11;87.16;102178.53;6192429;23;20085;-83
2023/10/06 19:28:52;;;;;;;8.20;3.05;;;;;;;16.10;87.41;102172.41;6218924;23;20021;-88
2023/10/06 19:31:19;;;;;;;8.25;3.55;;;;;;;16.08;87.13;102185.53;6218850;23;20017;-87
2023/10/06 19:33:50;;;;;;;4.93;3.40;;;;;;;16.06;87.54;102182.53;6192400;23;20064;-86
2023/10/06 19:36:19;;;;;;;;;;;;;;;16.07;87.56;102183.28;6167790;23;20044;-86
2023/10/06 19:38:47;;;;;;;5.28;3.33;;;;;;;16.01;87.53;102181.19;6167263;23;20306;-87
2023/10/06 19:41:14;;;;;;;10.30;3.58;;;;;;;15.99;87.95;102183.56;6218606;23;20502;-82
2023/10/06 19:43:42;;;;;;;5.38;3.50;;;;;;;15.99;88.54;102193.59;6221823;23;20451;-87
2023/10/06 19:46:09;;;;;;;7.35;4.68;;;;;;;15.96;88.13;102189.09;6220114;23;20067;-85
2023/10/06 19:48:38;;;;;;;7.85;4.15;;;;;;;15.93;88.88;102190.72;6220964;23;20044;-84
2023/10/06 19:51:09;;;;;;;6.63;3.78;;;;;;;15.92;88.72;102188.47;6226912;23;20009;-87
2023/10/06 19:53:36;;;;;;;6.87;3.83;;;;;;;15.87;88.95;102197.09;6221296;23;20014;-88
2023/10/06 19:56:03;;;;;;;10.20;3.40;;;;;;;15.84;89.47;102190.69;6193066;23;20683;-85
2023/10/06 19:58:31;;;;;;;13.00;3.08;;;;;;;15.82;89.84;102200.34;6218807;23;20021;-83
2023/10/06 20:00:58;;;;;;;6.82;3.40;;;;;;;15.80;89.85;102192.00;6168965;23;20068;-89
2023/10/06 20:03:25;;;;;;;8.23;3.70;;;;;;;15.77;89.65;102187.50;6202361;23;20132;-87
2023/10/06 20:05:55;;;;;;;5.65;3.47;;;;;;;15.76;90.23;102180.63;6219886;23;20052;-88
2023/10/06 20:08:22;;;;;;;7.30;3.10;;;;;;;15.73;90.45;102176.13;6191668;23;20021;-89
2023/10/06 20:10:55;;;;;;;9.88;3.10;;;;;;;15.71;90.52;102179.25;6221690;23;20016;-89
2023/10/06 20:13:26;;;;;;;10.00;3.80;;;;;;;15.69;90.44;102168.22;6201942;23;20009;-86
2023/10/06 20:15:53;;;;;;;11.70;3.08;;;;;;;15.67;90.80;102174.03;6225957;23;20015;-92
2023/10/06 20:18:20;;;;;;;9.80;3.47;;;;;;;15.64;90.99;102166.09;6223991;23;20056;-91
2023/10/06 20:20:47;;;;;;;16.35;6.07;;;;;;;15.61;91.61;102165.03;6217191;23;20567;-86
2023/10/06 20:23:14;;;;;;;11.38;5.13;;;;;;;15.61;91.67;102158.94;6196869;23;20108;-85
2023/10/06 20:25:40;;;;;;;10.02;4.20;;;;;;;15.60;91.64;102168.91;6192026;23;20059;-86
2023/10/06 20:28:09;;;;;;;8.35;3.90;;;;;;;15.57;92.26;102175.19;6220381;23;20013;-86
2023/10/06 20:30:36;;;;;;;15.93;6.57;;;;;;;15.55;91.79;102176.78;6193921;23;20024;-90
2023/10/06 20:33:13;;;;;;;10.60;4.50;;;;;;;15.53;92.35;102179.91;6199146;23;20943;-87
2023/10/06 20:35:43;;;;;;;7.72;4.03;;;;;;;15.50;92.59;102175.41;6197661;23;20397;-90
2023/10/06 20:38:10;;;;;;;8.27;3.85;;;;;;;15.47;92.97;102180.91;6222883;23;20079;-85
2023/10/06 20:40:37;;;;;;;7.95;3.80;;;;;;;15.46;92.86;102180.16;6224740;23;20017;-90
2023/10/06 20:43:07;;;;;;;8.07;3.70;;;;;;;15.43;92.98;102180.28;6195700;23;20019;-89
2023/10/06 20:45:34;;;;;;;9.60;3.60;;;;;;;15.41;93.15;102183.41;6195257;23;20021;-90
2023/10/06 20:48:05;;;;;;;11.73;3.88;;;;;;;15.40;93.62;102171.16;6198393;23;20063;-90
2023/10/06 20:50:37;;;;;;;10.30;3.65;;;;;;;15.37;93.46;102171.28;6222828;23;20020;-88
2023/10/06 20:53:06;;;;;;;10.55;3.10;;;;;;;15.35;93.74;102169.06;6196334;23;20104;-86
2023/10/06 20:55:33;;;;;;;8.43;3.63;;;;;;;15.34;93.98;102170.97;6221694;23;20105;-88
2023/10/06 20:58:00;;;;;;;11.10;3.50;;;;;;;15.33;93.64;102171.41;6195825;23;20025;-85
2023/10/06 21:00:26;;;;;;;11.15;3.30;;;;;;;15.31;94.21;102177.22;6192355;23;20045;-86
2023/10/06 21:02:56;;;;;;;11.63;3.22;;;;;;;15.28;94.61;102172.72;6194264;23;20017;-88
2023/10/06 21:05:23;;;;;;;6.15;3.00;;;;;;;15.26;94.88;102168.97;6169126;23;20017;-90
2023/10/06 21:07:50;;;;;;;10.25;2.95;;;;;;;15.23;94.83;102162.56;6177400;23;20056;-89
2023/10/06 21:10:18;;;;;;;8.10;3.00;;;;;;;15.24;95.19;102166.00;6204323;23;20020;-87
2023/10/06 21:12:45;;;;;;;7.90;2.97;;;;;;;15.22;95.69;102168.34;6176814;23;20718;-91
2023/10/06 21:15:13;;;;;;;11.90;2.90;;;;;;;15.20;95.94;102150.00;6196442;23;20013;-85
2023/10/06 21:17:46;;;;;;;14.30;2.88;;;;;;;15.19;95.95;102153.91;6193808;23;20033;-87
2023/10/06 21:20:15;;;;;;;5.05;2.70;;;;;;;15.16;96.30;102162.09;6193562;23;20071;-84
2023/10/06 21:22:42;;;;;;;6.53;2.80;;;;;;;15.15;96.92;102166.69;6193287;23;20017;-84
2023/10/06 21:25:12;;;;;;;11.05;3.05;;;;;;;15.13;97.01;102163.69;6193581;23;20063;-91
2023/10/06 21:27:40;;;;;;;6.35;2.70;;;;;;;15.12;96.96;102161.44;6194131;23;20604;-84
2023/10/06 21:30:07;;;;;;;9.07;3.25;;;;;;;15.10;97.15;102161.13;6219295;23;20052;-85
2023/10/06 21:32:37;;;;;;;12.88;3.40;;;;;;;15.07;97.84;102162.00;6192650;23;20048;-84
2023/10/06 21:35:05;;;;;;;6.95;3.03;;;;;;;15.06;98.19;102169.31;6193093;23;20101;-82
2023/10/06 21:37:32;;;;;;;6.88;3.10;;;;;;;15.06;98.36;102166.63;6219830;23;20017;-84
2023/10/06 21:39:59;;;;;;;10.95;2.80;;;;;;;15.05;98.56;102161.69;6193682;23;20020;-84
2023/10/06 21:42:25;;;;;;;9.73;3.22;;;;;;;15.02;99.14;102169.44;6193235;23;20017;-84
2023/10/06 21:44:53;;;;;;;13.23;4.10;;;;;;;15.01;99.31;102175.97;6193330;23;20470;-83
2023/10/06 21:47:19;;;;;;;11.55;3.90;;;;;;;14.98;99.70;102176.84;6219699;23;20044;-84
2023/10/06 21:49:47;;;;;;;8.00;3.40;;;;;;;14.97;99.93;102175.34;6192934;23;20447;-83
2023/10/06 21:52:14;;;;;;;12.63;3.95;;;;;;;14.96;100.00;102176.53;6167530;23;20440;-83